首页
METAR-TAF:

METAR-TAF

机场 :

Mount Clemens, 密歇根州, 美国

纬度: 42-37N, 经度: 082-50W, 海拔: 177米

当前天气观测

该预报发布于17分钟前的20:56 UTC
风速11节,风向东转东北
温度 23°C
湿度 57%
气压 1015 hPa
能見度: 16.1公里
少量云层高于7500英尺

METAR: KMTC 062056Z 06011KT 10SM FEW075 23/14 A2996 RMK AO2A SLP148 T02330140 53002 $

时间: 17:13 (21:13 UTC)

预报

该预报发布于4小时和13分钟前的17:00 UTC
预报有效从06日的 17点(UTC)到 07日的 23点(UTC)
风速6节,风向东转东南
能见度10公里或以上
散云层高于4000英尺
成为
从 06日的 20点(UTC)到 06日的 21点(UTC)
风速15节,风向
能见度10公里或以上
散云层高于5000英尺
成为
从 07日的 03点(UTC)到 07日的 04点(UTC)
风速6节,风向北转东北
能见度10公里或以上
少量云层高于3500英尺

TAF: KMTC 061700Z 0617/0723 12006KT 9999 SCT040 QNH2996INS BECMG 0620/0621 36015KT 9999 SCT050 510053 QNH2996INS BECMG 0703/0704 02006KT 9999 FEW035 510063 QNH3007INS TX26/0619Z TN11/0710Z

超过4000个机场的气象观测和天气预报(METAR&TAF报告)。

可查询的气象台以黄色和红色小点在地图上表示。

将鼠标移到小点上方,可查看气象台名称。

然后点击查看天气观测和预报。

如需切换地图:点击带黑十字的绿色按钮放大地图;点击带横线的绿色按钮缩小地图;或者点击绿色箭头查看邻近地区的地图。


METAR-TAF: